Rye, New Hampshire
Current Conditions -  °F | °C
As of 4:58 AM on Thursday 23 Oct 2014 (Local Time) from KPSM Reporting Station
Light Rain Light Rain  
Wind Chill: 42°   Ceiling: 800
Heat Index: 49°   Visibility: 6mi
Dew Point: 47°   Wind: 23mph
Humidity: 92%   Direction: 20°NNE
Pressure: 29.74"   Gusts: 36mph
Location:  43.01°N, 70.77°W
Report Text: KPSM 230858Z 02020G31KT 6SM -RA BR FEW004 BKN008 OVC012 09/08 A2974 RMK AO2A PK WND 02031/54 SLP075 P0007 60012 T00940081 57031
Loading
Personal Weather Stations






























Interactive Weather Map
Tropical Storm Tracking
New forecast layout! Learn more

10-Day Weather Forecast

Advertisements
Track Severe Weather on mobile